createdAt,value
2023-03-31T00:00:25.507Z,971.14
2023-03-31T00:01:25.512Z,971.16
2023-03-31T00:02:25.560Z,971.11
2023-03-31T00:03:25.762Z,971.11
2023-03-31T00:04:25.491Z,971.11
2023-03-31T00:05:25.445Z,971.11
2023-03-31T00:06:25.419Z,971.13
2023-03-31T00:07:25.413Z,971.09
2023-03-31T00:08:25.401Z,971.13
2023-03-31T00:09:25.387Z,971.10
2023-03-31T00:10:25.384Z,971.16
2023-03-31T00:11:25.359Z,971.20
2023-03-31T00:12:25.347Z,971.19
2023-03-31T00:13:25.330Z,971.12
2023-03-31T00:14:25.313Z,971.17
2023-03-31T00:15:25.301Z,971.07
2023-03-31T00:16:25.309Z,971.06
2023-03-31T00:17:25.344Z,971.07
2023-03-31T00:18:25.251Z,970.98
2023-03-31T00:19:25.253Z,971.04
2023-03-31T00:20:25.262Z,971.00
2023-03-31T00:22:25.203Z,970.98
2023-03-31T00:23:25.210Z,970.97
2023-03-31T00:24:25.179Z,971.04
2023-03-31T00:25:25.171Z,970.96
2023-03-31T00:26:25.153Z,970.97
2023-03-31T00:27:25.137Z,970.94
2023-03-31T00:28:25.127Z,970.86
2023-03-31T00:29:25.106Z,970.89
2023-03-31T00:30:25.096Z,970.93
2023-03-31T00:31:25.106Z,970.89
2023-03-31T00:32:25.102Z,970.86
2023-03-31T00:33:25.078Z,970.83
2023-03-31T00:34:25.035Z,970.86
2023-03-31T00:35:25.021Z,970.83
2023-03-31T00:36:25.042Z,970.81
2023-03-31T00:37:24.997Z,970.80
2023-03-31T00:38:24.997Z,970.73
2023-03-31T00:39:24.968Z,970.82
2023-03-31T00:40:24.956Z,970.83
2023-03-31T00:41:24.940Z,970.76
2023-03-31T00:42:24.929Z,970.71
2023-03-31T00:43:24.922Z,970.69
2023-03-31T00:44:25.096Z,970.60
2023-03-31T00:45:25.006Z,970.62
2023-03-31T00:46:24.916Z,970.58
2023-03-31T00:47:24.861Z,970.53
2023-03-31T00:48:24.849Z,970.61
2023-03-31T00:49:24.857Z,970.50
2023-03-31T00:50:24.813Z,970.46
2023-03-31T00:51:24.805Z,970.42
2023-03-31T00:52:24.794Z,970.37
2023-03-31T00:53:24.781Z,970.29
2023-03-31T00:54:24.765Z,970.38
2023-03-31T00:55:24.749Z,970.43
2023-03-31T00:56:24.737Z,970.43
2023-03-31T00:57:24.762Z,970.33
2023-03-31T00:58:24.707Z,970.38
2023-03-31T00:59:24.706Z,970.34
2023-03-31T01:00:24.681Z,970.33
2023-03-31T01:01:24.855Z,970.39
2023-03-31T01:02:24.676Z,970.34
2023-03-31T01:03:24.650Z,970.24
2023-03-31T01:04:24.636Z,970.33
2023-03-31T01:05:24.637Z,970.26
2023-03-31T01:06:24.601Z,970.25
2023-03-31T01:07:24.600Z,970.25
2023-03-31T01:08:24.612Z,970.23
2023-03-31T01:09:24.564Z,970.25
2023-03-31T01:10:24.552Z,970.21
2023-03-31T01:11:24.538Z,970.17
2023-03-31T01:12:24.513Z,970.20
2023-03-31T01:13:24.515Z,970.20
2023-03-31T01:14:24.490Z,970.24
2023-03-31T01:15:24.489Z,970.27
2023-03-31T01:16:24.497Z,970.34
2023-03-31T01:17:24.568Z,970.29
2023-03-31T01:18:24.669Z,970.22
2023-03-31T01:19:24.431Z,970.22
2023-03-31T01:20:24.417Z,970.24
2023-03-31T01:21:24.423Z,970.14
2023-03-31T01:22:24.398Z,970.09
2023-03-31T01:23:24.377Z,970.18
2023-03-31T01:24:24.361Z,970.20
2023-03-31T01:25:24.348Z,970.13
2023-03-31T01:26:24.342Z,970.14
2023-03-31T01:27:24.316Z,969.98
2023-03-31T01:28:24.308Z,969.98
2023-03-31T01:29:24.299Z,970.16
2023-03-31T01:30:24.287Z,970.13
2023-03-31T01:31:24.308Z,970.26
2023-03-31T01:32:24.282Z,970.07
2023-03-31T01:33:24.233Z,970.16
2023-03-31T01:34:24.224Z,970.06
2023-03-31T01:35:24.282Z,970.16
2023-03-31T01:36:24.201Z,970.05
2023-03-31T01:37:24.286Z,970.05
2023-03-31T01:38:24.219Z,970.12
2023-03-31T01:39:24.159Z,970.05
2023-03-31T01:40:24.156Z,970.07
2023-03-31T01:41:24.132Z,970.08
2023-03-31T01:42:24.564Z,970.11
2023-03-31T01:43:24.100Z,970.15
2023-03-31T01:44:24.084Z,970.03
2023-03-31T01:45:24.088Z,970.16
2023-03-31T01:46:24.085Z,970.17
2023-03-31T01:47:24.095Z,970.13
2023-03-31T01:48:24.073Z,970.23
2023-03-31T01:49:24.033Z,970.29
2023-03-31T01:50:24.006Z,970.24
2023-03-31T01:51:24.004Z,970.24
2023-03-31T01:52:24.086Z,970.19
2023-03-31T01:53:24.008Z,970.20
2023-03-31T01:54:23.953Z,970.22
2023-03-31T01:55:23.941Z,970.29
2023-03-31T01:56:23.928Z,970.24
2023-03-31T01:57:24.024Z,970.28
2023-03-31T01:58:23.897Z,970.31
2023-03-31T01:59:23.886Z,970.29
2023-03-31T02:00:23.870Z,970.28
2023-03-31T02:01:23.891Z,970.27
2023-03-31T02:02:23.912Z,970.30
2023-03-31T02:03:23.965Z,970.31
2023-03-31T02:04:23.824Z,970.37
2023-03-31T02:05:23.811Z,970.40
2023-03-31T02:06:23.790Z,970.33
2023-03-31T02:07:23.773Z,970.33
2023-03-31T02:08:23.767Z,970.35
2023-03-31T02:09:23.790Z,970.32
2023-03-31T02:10:23.742Z,970.35
2023-03-31T02:11:23.724Z,970.38
2023-03-31T02:12:23.710Z,970.38
2023-03-31T02:13:23.694Z,970.24
2023-03-31T02:14:23.824Z,970.22
2023-03-31T02:15:23.668Z,970.19
2023-03-31T02:16:23.738Z,970.15
2023-03-31T02:17:23.687Z,970.17
2023-03-31T02:18:23.628Z,970.09
2023-03-31T02:19:23.729Z,970.02
2023-03-31T02:20:23.597Z,969.82
2023-03-31T02:21:23.587Z,969.78
2023-03-31T02:22:23.675Z,969.74
2023-03-31T02:23:23.562Z,969.74
2023-03-31T02:24:23.539Z,969.58
2023-03-31T02:25:23.553Z,969.49
2023-03-31T02:26:23.517Z,969.50
2023-03-31T02:27:23.503Z,969.44
2023-03-31T02:28:23.497Z,969.43
2023-03-31T02:29:23.473Z,969.41
2023-03-31T02:30:23.464Z,969.32
2023-03-31T02:31:23.478Z,969.30
2023-03-31T02:32:23.482Z,969.32
2023-03-31T02:33:23.425Z,969.27
2023-03-31T02:34:23.564Z,969.23
2023-03-31T02:35:23.430Z,969.15
2023-03-31T02:36:23.379Z,969.09
2023-03-31T02:37:23.366Z,968.89
2023-03-31T02:38:23.371Z,968.81
2023-03-31T02:39:23.346Z,968.71
2023-03-31T02:40:23.328Z,968.69
2023-03-31T02:41:23.349Z,968.64
2023-03-31T02:42:23.302Z,968.64
2023-03-31T02:43:23.343Z,968.67
2023-03-31T02:44:23.277Z,968.60
2023-03-31T02:45:23.268Z,968.56
2023-03-31T02:46:23.411Z,968.46
2023-03-31T02:47:23.361Z,968.43
2023-03-31T02:48:23.217Z,968.48
2023-03-31T02:49:23.204Z,968.28
2023-03-31T02:50:23.195Z,968.39
2023-03-31T02:51:23.176Z,968.35
2023-03-31T02:52:23.157Z,968.31
2023-03-31T02:53:23.156Z,968.33
2023-03-31T02:54:23.141Z,968.38
2023-03-31T02:55:23.137Z,968.33
2023-03-31T02:56:23.414Z,968.27
2023-03-31T02:57:23.145Z,968.27
2023-03-31T02:58:23.109Z,968.18
2023-03-31T02:59:23.067Z,968.11
2023-03-31T03:00:23.087Z,968.11
2023-03-31T03:01:23.148Z,968.09
2023-03-31T03:02:23.119Z,968.14
2023-03-31T03:03:23.039Z,968.12
2023-03-31T03:04:23.030Z,968.14
2023-03-31T03:05:22.990Z,968.11
2023-03-31T03:06:22.991Z,968.04
2023-03-31T03:07:22.965Z,968.06
2023-03-31T03:08:22.951Z,968.10
2023-03-31T03:09:22.941Z,968.05
2023-03-31T03:10:22.932Z,968.01
2023-03-31T03:11:22.926Z,967.93
2023-03-31T03:12:22.894Z,967.94
2023-03-31T03:13:22.909Z,967.98
2023-03-31T03:14:22.870Z,967.98
2023-03-31T03:15:22.877Z,967.95
2023-03-31T03:16:22.906Z,967.95
2023-03-31T03:17:22.850Z,967.99
2023-03-31T03:18:22.816Z,967.86
2023-03-31T03:19:22.803Z,967.81
2023-03-31T03:20:22.793Z,967.80
2023-03-31T03:21:22.788Z,967.79
2023-03-31T03:22:22.783Z,967.76
2023-03-31T03:23:22.766Z,967.63
2023-03-31T03:24:22.830Z,967.63
2023-03-31T03:25:22.741Z,967.63
2023-03-31T03:26:22.712Z,967.51
2023-03-31T03:27:22.901Z,967.56
2023-03-31T03:28:22.684Z,967.59
2023-03-31T03:29:22.694Z,967.52
2023-03-31T03:30:22.667Z,967.54
2023-03-31T03:31:22.755Z,967.48
2023-03-31T03:32:22.631Z,967.44
2023-03-31T03:33:22.619Z,967.41
2023-03-31T03:34:22.603Z,967.52
2023-03-31T03:35:22.597Z,967.55
2023-03-31T03:36:22.607Z,967.36
2023-03-31T03:37:22.589Z,967.39
2023-03-31T03:38:22.542Z,967.37
2023-03-31T03:39:22.531Z,967.40
2023-03-31T03:40:22.822Z,967.41
2023-03-31T03:41:22.509Z,967.40
2023-03-31T03:42:22.493Z,967.37
2023-03-31T03:43:22.481Z,967.30
2023-03-31T03:44:22.475Z,967.24
2023-03-31T03:45:22.476Z,967.24
2023-03-31T03:46:22.476Z,967.22
2023-03-31T03:47:22.476Z,967.08
2023-03-31T03:48:22.409Z,967.09
2023-03-31T03:49:22.412Z,967.02
2023-03-31T03:50:22.390Z,966.99
2023-03-31T03:51:22.366Z,966.95
2023-03-31T03:52:22.357Z,966.93
2023-03-31T03:53:22.345Z,967.03
2023-03-31T03:54:22.325Z,966.96
2023-03-31T03:55:22.316Z,966.92
2023-03-31T03:56:22.311Z,966.86
2023-03-31T03:57:22.358Z,966.81
2023-03-31T03:58:22.278Z,966.82
2023-03-31T03:59:22.258Z,966.85
2023-03-31T04:00:22.243Z,966.85
2023-03-31T04:01:22.261Z,966.80
2023-03-31T04:02:22.266Z,966.75
2023-03-31T04:03:22.222Z,966.71
2023-03-31T04:04:22.185Z,966.71
2023-03-31T04:05:22.205Z,966.70
2023-03-31T04:06:22.166Z,966.63
2023-03-31T04:07:22.147Z,966.56
2023-03-31T04:08:22.130Z,966.44
2023-03-31T04:09:22.116Z,966.35
2023-03-31T04:10:22.104Z,966.23
2023-03-31T04:11:22.091Z,966.18
2023-03-31T04:12:22.072Z,966.14
2023-03-31T04:13:22.070Z,966.18
2023-03-31T04:14:22.052Z,966.14
2023-03-31T04:15:22.041Z,966.02
2023-03-31T04:16:22.045Z,966.04
2023-03-31T04:17:22.067Z,966.12
2023-03-31T04:18:22.005Z,966.20
2023-03-31T04:19:21.976Z,966.21
2023-03-31T04:20:21.963Z,966.16
2023-03-31T04:21:21.952Z,966.14
2023-03-31T04:22:21.945Z,966.11
2023-03-31T04:23:21.922Z,966.11
2023-03-31T04:24:22.139Z,966.06
2023-03-31T04:25:21.898Z,966.03
2023-03-31T04:26:21.886Z,966.04
2023-03-31T04:27:21.869Z,966.10
2023-03-31T04:28:21.857Z,966.12
2023-03-31T04:29:21.853Z,966.03
2023-03-31T04:30:21.830Z,966.02
2023-03-31T04:31:21.842Z,966.08
2023-03-31T04:32:21.815Z,966.07
2023-03-31T04:33:21.817Z,966.14
2023-03-31T04:34:21.781Z,966.04
2023-03-31T04:35:21.815Z,966.01
2023-03-31T04:36:21.744Z,966.04
2023-03-31T04:37:21.745Z,966.01
2023-03-31T04:38:21.724Z,965.97
2023-03-31T04:39:21.698Z,965.95
2023-03-31T04:40:21.694Z,965.93
2023-03-31T04:41:21.678Z,965.92
2023-03-31T04:42:21.668Z,965.94
2023-03-31T04:43:21.666Z,965.92
2023-03-31T04:44:21.641Z,965.90
2023-03-31T04:45:21.624Z,965.90
2023-03-31T04:46:21.730Z,965.89
2023-03-31T04:47:21.637Z,965.96
2023-03-31T04:48:21.586Z,965.96
2023-03-31T04:49:21.585Z,965.95
2023-03-31T04:50:21.556Z,966.00
2023-03-31T04:51:21.544Z,966.06
2023-03-31T04:52:21.528Z,965.97
2023-03-31T04:53:21.511Z,966.03
2023-03-31T04:54:21.512Z,965.96
2023-03-31T04:55:21.484Z,965.92
2023-03-31T04:56:21.478Z,965.98
2023-03-31T04:57:21.546Z,965.97
2023-03-31T04:58:21.444Z,965.93
2023-03-31T04:59:21.439Z,965.93
2023-03-31T05:00:21.431Z,965.95
2023-03-31T05:01:21.493Z,965.91
2023-03-31T05:02:23.568Z,965.93
2023-03-31T05:03:21.675Z,965.82
2023-03-31T05:04:21.365Z,965.82
2023-03-31T05:05:21.386Z,965.84
2023-03-31T05:06:21.346Z,965.82
2023-03-31T05:07:21.330Z,965.79
2023-03-31T05:08:21.313Z,965.69
2023-03-31T05:09:21.305Z,965.65
2023-03-31T05:10:21.296Z,965.73
2023-03-31T05:11:21.281Z,965.73
2023-03-31T05:12:21.267Z,965.85
2023-03-31T05:13:21.248Z,965.94
2023-03-31T05:14:21.236Z,965.89
2023-03-31T05:15:21.244Z,965.94
2023-03-31T05:16:21.222Z,966.00
2023-03-31T05:17:21.198Z,965.99
2023-03-31T05:18:21.190Z,966.11
2023-03-31T05:19:21.177Z,966.11
2023-03-31T05:20:21.166Z,966.11
2023-03-31T05:21:21.168Z,966.15
2023-03-31T05:22:21.131Z,966.09
2023-03-31T05:23:21.143Z,966.10
2023-03-31T05:24:21.106Z,966.03
2023-03-31T05:25:21.104Z,965.97
2023-03-31T05:26:21.085Z,965.90
2023-03-31T05:27:21.064Z,965.93
2023-03-31T05:28:21.053Z,965.92
2023-03-31T05:29:21.036Z,965.93
2023-03-31T05:30:21.019Z,965.92
2023-03-31T05:31:21.059Z,965.81
2023-03-31T05:32:21.043Z,965.82
2023-03-31T05:33:20.979Z,965.87
2023-03-31T05:34:20.972Z,965.76
2023-03-31T05:35:20.958Z,965.75
2023-03-31T05:36:21.007Z,965.68
2023-03-31T05:37:20.992Z,965.62
2023-03-31T05:38:20.967Z,965.65
2023-03-31T05:39:20.897Z,965.59
2023-03-31T05:40:20.894Z,965.63
2023-03-31T05:41:21.305Z,965.62
2023-03-31T05:42:20.857Z,965.67
2023-03-31T05:43:20.841Z,965.65
2023-03-31T05:44:20.838Z,965.67
2023-03-31T05:45:20.823Z,965.69
2023-03-31T05:46:20.866Z,965.68
2023-03-31T05:47:20.792Z,965.64
2023-03-31T05:48:20.781Z,965.69
2023-03-31T05:49:20.776Z,965.76
2023-03-31T05:50:20.752Z,965.76
2023-03-31T05:51:20.742Z,965.73
2023-03-31T05:52:20.721Z,965.62
2023-03-31T05:53:20.725Z,965.54
2023-03-31T05:54:20.692Z,965.45
2023-03-31T05:55:20.682Z,965.39
2023-03-31T05:56:21.114Z,965.34
2023-03-31T05:57:20.714Z,965.32
2023-03-31T05:58:20.640Z,965.25
2023-03-31T05:59:20.627Z,965.34
2023-03-31T06:00:20.620Z,965.24
2023-03-31T06:01:20.643Z,965.26
2023-03-31T06:02:20.653Z,965.26
2023-03-31T06:03:20.584Z,965.18
2023-03-31T06:04:20.677Z,965.10
2023-03-31T06:05:20.549Z,965.05
2023-03-31T06:06:20.731Z,965.03
2023-03-31T06:07:20.511Z,965.00
2023-03-31T06:08:20.505Z,965.06
2023-03-31T06:09:20.519Z,965.15
2023-03-31T06:10:20.477Z,965.08
2023-03-31T06:11:20.478Z,965.10
2023-03-31T06:12:20.450Z,964.97
2023-03-31T06:13:20.433Z,965.00
2023-03-31T06:14:20.417Z,964.92
2023-03-31T06:15:20.411Z,964.95
2023-03-31T06:16:20.418Z,964.94
2023-03-31T06:17:20.378Z,964.92
2023-03-31T06:18:20.365Z,964.98
2023-03-31T06:19:20.346Z,964.98
2023-03-31T06:20:27.768Z,964.94
2023-03-31T06:21:21.354Z,965.00
2023-03-31T06:22:20.352Z,965.00
2023-03-31T06:23:20.302Z,965.05
2023-03-31T06:24:20.284Z,965.01
2023-03-31T06:25:20.326Z,965.07
2023-03-31T06:26:20.261Z,965.02
2023-03-31T06:27:20.249Z,965.10
2023-03-31T06:28:20.237Z,964.94
2023-03-31T06:29:20.222Z,964.84
2023-03-31T06:30:20.403Z,964.78
2023-03-31T06:31:20.196Z,964.50
2023-03-31T06:32:20.175Z,964.60
2023-03-31T06:33:20.162Z,964.79
2023-03-31T06:34:21.477Z,964.89
2023-03-31T06:35:20.141Z,964.65
2023-03-31T06:36:20.197Z,964.53
2023-03-31T06:37:20.102Z,964.70
2023-03-31T06:38:20.097Z,964.94
2023-03-31T06:39:20.075Z,965.01
2023-03-31T06:40:20.084Z,965.00
2023-03-31T06:41:20.088Z,965.10
2023-03-31T06:42:20.043Z,965.13
2023-03-31T06:43:20.024Z,965.30
2023-03-31T06:44:20.012Z,965.34
2023-03-31T06:45:20.008Z,965.38
2023-03-31T06:46:20.010Z,965.49
2023-03-31T06:47:19.985Z,965.57
2023-03-31T06:48:19.953Z,965.64
2023-03-31T06:49:19.948Z,965.65
2023-03-31T06:50:19.928Z,965.52
2023-03-31T06:51:19.909Z,965.62
2023-03-31T06:52:19.911Z,965.76
2023-03-31T06:53:19.886Z,965.95
2023-03-31T06:54:19.890Z,965.80
2023-03-31T06:55:19.863Z,965.97
2023-03-31T06:56:19.853Z,965.89
2023-03-31T06:57:19.927Z,965.93
2023-03-31T06:58:19.844Z,965.99
2023-03-31T06:59:19.809Z,966.07
2023-03-31T07:00:22.444Z,966.15
2023-03-31T07:01:19.777Z,966.16
2023-03-31T07:02:19.797Z,966.22
2023-03-31T07:03:19.805Z,966.35
2023-03-31T07:04:19.871Z,966.43
2023-03-31T07:05:19.726Z,966.31
2023-03-31T07:06:19.719Z,966.36
2023-03-31T07:07:19.704Z,966.23
2023-03-31T07:08:19.689Z,966.16
2023-03-31T07:09:19.668Z,966.13
2023-03-31T07:10:19.650Z,966.20
2023-03-31T07:11:21.041Z,966.30
2023-03-31T07:12:19.628Z,966.30
2023-03-31T07:13:19.641Z,966.26
2023-03-31T07:14:19.605Z,966.43
2023-03-31T07:15:19.594Z,966.43
2023-03-31T07:16:19.608Z,965.60
2023-03-31T07:17:19.552Z,965.55
2023-03-31T07:18:19.803Z,965.75
2023-03-31T07:19:19.534Z,965.79
2023-03-31T07:20:19.515Z,965.71
2023-03-31T07:21:19.505Z,965.77
2023-03-31T07:22:19.495Z,965.76
2023-03-31T07:23:19.483Z,965.68
2023-03-31T07:24:19.474Z,965.62
2023-03-31T07:25:19.443Z,965.72
2023-03-31T07:26:19.440Z,965.82
2023-03-31T07:27:19.431Z,965.86
2023-03-31T07:28:19.419Z,965.87
2023-03-31T07:29:19.422Z,965.76
2023-03-31T07:30:19.387Z,965.70
2023-03-31T07:31:19.437Z,965.78
2023-03-31T07:32:19.379Z,965.70
2023-03-31T07:33:19.345Z,965.72
2023-03-31T07:34:19.328Z,965.70
2023-03-31T07:35:19.325Z,965.68
2023-03-31T07:36:19.552Z,965.54
2023-03-31T07:37:19.286Z,965.57
2023-03-31T07:38:19.274Z,965.55
2023-03-31T07:39:19.257Z,965.47
2023-03-31T07:40:19.240Z,965.40
2023-03-31T07:41:19.235Z,965.44
2023-03-31T07:42:19.230Z,965.42
2023-03-31T07:43:19.207Z,965.37
2023-03-31T07:44:19.196Z,965.29
2023-03-31T07:45:19.205Z,965.23
2023-03-31T07:46:19.216Z,965.18
2023-03-31T07:47:19.149Z,965.22
2023-03-31T07:48:19.137Z,965.13
2023-03-31T07:49:19.121Z,965.17
2023-03-31T07:50:19.123Z,964.92
2023-03-31T07:51:19.109Z,964.86
2023-03-31T07:52:19.080Z,964.86
2023-03-31T07:53:19.063Z,964.86
2023-03-31T07:54:19.050Z,964.83
2023-03-31T07:55:19.101Z,964.75
2023-03-31T07:56:19.024Z,964.80
2023-03-31T07:57:19.043Z,964.75
2023-03-31T07:58:18.998Z,964.74
2023-03-31T07:59:19.000Z,964.76
2023-03-31T08:00:18.977Z,964.76
2023-03-31T08:01:18.998Z,964.67
2023-03-31T08:02:19.081Z,964.44
2023-03-31T08:03:18.974Z,964.57
2023-03-31T08:04:18.993Z,964.58
2023-03-31T08:05:18.914Z,964.49
2023-03-31T08:06:18.892Z,964.40
2023-03-31T08:07:18.875Z,964.31
2023-03-31T08:08:18.864Z,964.31
2023-03-31T08:09:18.853Z,964.27
2023-03-31T08:10:18.843Z,964.26
2023-03-31T08:11:18.822Z,964.29
2023-03-31T08:12:18.808Z,964.28
2023-03-31T08:13:18.812Z,964.24
2023-03-31T08:14:30.394Z,964.30
2023-03-31T08:15:19.800Z,964.35
2023-03-31T08:16:18.827Z,964.37
2023-03-31T08:17:18.765Z,964.38
2023-03-31T08:18:18.733Z,964.44
2023-03-31T08:19:18.710Z,964.45
2023-03-31T08:20:18.699Z,964.46
2023-03-31T08:21:18.683Z,964.54
2023-03-31T08:22:18.679Z,964.61
2023-03-31T08:23:18.685Z,964.57
2023-03-31T08:24:18.643Z,964.58
2023-03-31T08:25:18.642Z,964.55
2023-03-31T08:26:18.622Z,964.59
2023-03-31T08:27:18.613Z,964.49
2023-03-31T08:28:18.601Z,964.51
2023-03-31T08:29:18.584Z,964.40
2023-03-31T08:30:18.602Z,964.42
2023-03-31T08:31:18.628Z,964.34
2023-03-31T08:32:18.537Z,964.35
2023-03-31T08:33:18.565Z,964.24
2023-03-31T08:34:18.509Z,964.27
2023-03-31T08:35:18.500Z,964.34
2023-03-31T08:36:18.526Z,964.30
2023-03-31T08:37:18.485Z,964.17
2023-03-31T08:38:18.454Z,964.14
2023-03-31T08:39:18.445Z,964.17
2023-03-31T08:40:18.423Z,964.23
2023-03-31T08:41:18.415Z,964.14
2023-03-31T08:42:18.403Z,964.06
2023-03-31T08:43:18.403Z,964.17
2023-03-31T08:44:18.394Z,964.10
2023-03-31T08:45:18.357Z,964.10
2023-03-31T08:46:18.359Z,964.17
2023-03-31T08:47:18.335Z,964.09
2023-03-31T08:48:18.317Z,964.02
2023-03-31T08:49:18.336Z,964.08
2023-03-31T08:50:18.310Z,964.18
2023-03-31T08:51:18.281Z,964.13
2023-03-31T08:52:18.264Z,964.20
2023-03-31T08:53:18.282Z,963.99
2023-03-31T08:54:18.245Z,964.11
2023-03-31T08:55:18.234Z,964.06
2023-03-31T08:56:18.217Z,964.01
2023-03-31T08:57:18.321Z,964.14
2023-03-31T08:58:18.184Z,964.07
2023-03-31T08:59:18.535Z,964.01
2023-03-31T09:00:18.173Z,964.08
2023-03-31T09:01:18.183Z,964.02
2023-03-31T09:02:18.359Z,963.99
2023-03-31T09:03:18.249Z,963.91
2023-03-31T09:04:18.237Z,964.01
2023-03-31T09:05:18.118Z,963.89
2023-03-31T09:06:18.272Z,963.92
2023-03-31T09:07:18.069Z,963.81
2023-03-31T09:08:18.074Z,963.91
2023-03-31T09:09:18.040Z,963.96
2023-03-31T09:10:18.036Z,963.75
2023-03-31T09:11:18.013Z,963.78
2023-03-31T09:12:18.009Z,963.90
2023-03-31T09:13:17.989Z,963.92
2023-03-31T09:14:17.973Z,963.88
2023-03-31T09:15:17.986Z,963.89
2023-03-31T09:16:17.952Z,963.93
2023-03-31T09:17:17.938Z,963.84
2023-03-31T09:18:17.937Z,963.75
2023-03-31T09:19:17.902Z,963.86
2023-03-31T09:20:18.193Z,963.62
2023-03-31T09:21:17.907Z,963.69
2023-03-31T09:22:17.889Z,963.67
2023-03-31T09:23:17.850Z,963.67
2023-03-31T09:24:17.865Z,963.63
2023-03-31T09:25:17.838Z,963.57
2023-03-31T09:26:17.819Z,963.61
2023-03-31T09:27:17.804Z,963.69
2023-03-31T09:28:17.791Z,963.57
2023-03-31T09:29:17.773Z,963.78
2023-03-31T09:30:17.806Z,963.49
2023-03-31T09:31:17.803Z,963.55
2023-03-31T09:32:17.728Z,963.37
2023-03-31T09:33:17.748Z,963.44
2023-03-31T09:34:17.718Z,963.30
2023-03-31T09:35:17.697Z,963.34
2023-03-31T09:36:17.785Z,963.42
2023-03-31T09:37:17.694Z,963.54
2023-03-31T09:38:17.657Z,963.37
2023-03-31T09:39:17.642Z,963.49
2023-03-31T09:40:17.626Z,963.41
2023-03-31T09:41:17.619Z,963.05
2023-03-31T09:42:17.605Z,963.31
2023-03-31T09:43:17.594Z,963.32
2023-03-31T09:44:17.595Z,963.18
2023-03-31T09:45:17.573Z,963.25
2023-03-31T09:46:17.707Z,963.17
2023-03-31T09:47:17.712Z,963.41
2023-03-31T09:48:17.524Z,963.43
2023-03-31T09:49:17.511Z,963.14
2023-03-31T09:50:17.503Z,963.05
2023-03-31T09:51:17.483Z,963.00
2023-03-31T09:52:17.468Z,963.06
2023-03-31T09:53:17.491Z,962.99
2023-03-31T09:54:17.440Z,962.93
2023-03-31T09:55:28.392Z,962.84
2023-03-31T09:56:18.444Z,962.80
2023-03-31T09:57:17.456Z,962.86
2023-03-31T09:58:17.391Z,962.94
2023-03-31T09:59:17.378Z,963.00
2023-03-31T10:00:17.365Z,962.78
2023-03-31T10:01:17.383Z,962.81
2023-03-31T10:02:17.686Z,963.02
2023-03-31T10:03:17.325Z,962.80
2023-03-31T10:04:17.363Z,962.96
2023-03-31T10:05:17.304Z,962.81
2023-03-31T10:06:17.294Z,962.76
2023-03-31T10:07:17.281Z,962.66
2023-03-31T10:08:17.269Z,962.67
2023-03-31T10:09:17.278Z,962.75
2023-03-31T10:10:17.238Z,962.67
2023-03-31T10:11:17.227Z,962.73
2023-03-31T10:12:17.212Z,962.76
2023-03-31T10:13:17.203Z,962.56
2023-03-31T10:14:17.193Z,962.71
2023-03-31T10:15:17.174Z,962.59
2023-03-31T10:16:17.173Z,962.56
2023-03-31T10:17:17.145Z,962.63
2023-03-31T10:18:17.178Z,962.45
2023-03-31T10:19:17.122Z,962.49
2023-03-31T10:20:17.099Z,962.47
2023-03-31T10:21:17.091Z,962.45
2023-03-31T10:22:17.084Z,962.30
2023-03-31T10:23:17.070Z,962.37
2023-03-31T10:24:17.055Z,962.19
2023-03-31T10:25:17.110Z,962.27
2023-03-31T10:26:17.031Z,962.20
2023-03-31T10:27:18.322Z,962.25
2023-03-31T10:28:17.015Z,962.14
2023-03-31T10:29:16.997Z,962.19
2023-03-31T10:30:16.965Z,962.06
2023-03-31T10:31:16.994Z,962.01
2023-03-31T10:32:16.940Z,962.01
2023-03-31T10:33:22.556Z,962.05
2023-03-31T10:34:17.977Z,962.04
2023-03-31T10:35:16.906Z,962.14
2023-03-31T10:36:16.944Z,961.99
2023-03-31T10:37:16.874Z,961.96
2023-03-31T10:38:16.871Z,961.66
2023-03-31T10:39:16.847Z,961.89
2023-03-31T10:40:16.924Z,961.98
2023-03-31T10:41:16.945Z,961.93
2023-03-31T10:42:16.816Z,961.85
2023-03-31T10:43:16.804Z,961.72
2023-03-31T10:44:16.786Z,961.87
2023-03-31T10:45:26.254Z,961.74
2023-03-31T10:46:17.825Z,961.99
2023-03-31T10:47:16.748Z,961.91
2023-03-31T10:48:16.741Z,961.80
2023-03-31T10:49:16.720Z,961.75
2023-03-31T10:50:16.792Z,961.89
2023-03-31T10:51:16.721Z,961.91
2023-03-31T10:52:16.678Z,961.76
2023-03-31T10:53:16.663Z,961.83
2023-03-31T10:54:16.655Z,961.80
2023-03-31T10:55:16.663Z,961.74
2023-03-31T10:56:16.626Z,961.86
2023-03-31T10:57:16.673Z,961.80
2023-03-31T10:58:16.611Z,961.85
2023-03-31T10:59:16.588Z,962.00
2023-03-31T11:00:16.814Z,961.76
2023-03-31T11:01:16.607Z,961.95
2023-03-31T11:02:16.551Z,961.74
2023-03-31T11:03:17.144Z,961.69
2023-03-31T11:04:16.517Z,961.78
2023-03-31T11:05:16.518Z,961.96
2023-03-31T11:06:16.495Z,961.89
2023-03-31T11:07:16.486Z,961.85
2023-03-31T11:08:18.602Z,961.90
2023-03-31T11:09:16.560Z,962.06
2023-03-31T11:10:16.456Z,961.96
2023-03-31T11:11:16.427Z,962.19
2023-03-31T11:12:16.418Z,962.66
2023-03-31T11:13:16.431Z,962.40
2023-03-31T11:14:16.390Z,962.54
2023-03-31T11:15:16.390Z,962.55
2023-03-31T11:16:16.472Z,962.34
2023-03-31T11:17:16.404Z,962.49
2023-03-31T11:18:16.335Z,963.02
2023-03-31T11:19:16.320Z,963.58
2023-03-31T11:20:16.326Z,964.01
2023-03-31T11:21:16.297Z,964.69
2023-03-31T11:22:16.281Z,964.83
2023-03-31T11:23:16.261Z,965.01
2023-03-31T11:24:16.254Z,965.10
2023-03-31T11:25:16.252Z,964.94
2023-03-31T11:26:16.225Z,965.05
2023-03-31T11:27:16.211Z,964.98
2023-03-31T11:28:16.249Z,964.92
2023-03-31T11:29:16.215Z,964.76
2023-03-31T11:30:16.208Z,964.89
2023-03-31T11:31:16.177Z,964.88
2023-03-31T11:32:16.313Z,964.99
2023-03-31T11:33:16.212Z,964.98
2023-03-31T11:34:16.114Z,965.22
2023-03-31T11:35:16.104Z,965.06
2023-03-31T11:36:16.122Z,965.11
2023-03-31T11:37:16.073Z,965.15
2023-03-31T11:38:16.195Z,965.34
2023-03-31T11:39:16.076Z,965.26
2023-03-31T11:40:16.037Z,965.26
2023-03-31T11:41:16.027Z,965.04
2023-03-31T11:42:16.277Z,964.96
2023-03-31T11:43:15.992Z,965.05
2023-03-31T11:44:15.971Z,965.00
2023-03-31T11:45:15.982Z,964.91
2023-03-31T11:46:15.988Z,965.00
2023-03-31T11:47:15.943Z,964.86
2023-03-31T11:48:16.042Z,964.76
2023-03-31T11:49:15.936Z,964.57
2023-03-31T11:50:15.912Z,964.51
2023-03-31T11:51:15.885Z,964.60
2023-03-31T11:52:15.868Z,964.57
2023-03-31T11:53:15.881Z,964.51
2023-03-31T11:54:15.844Z,964.33
2023-03-31T11:55:15.834Z,964.28
2023-03-31T11:56:15.818Z,964.10
2023-03-31T11:57:15.873Z,964.05
2023-03-31T11:58:15.794Z,963.98
2023-03-31T11:59:15.777Z,963.99
2023-03-31T12:00:15.769Z,964.09
2023-03-31T12:01:15.772Z,963.99
2023-03-31T12:02:15.736Z,964.08
2023-03-31T12:03:15.795Z,963.99
2023-03-31T12:04:15.784Z,964.06
2023-03-31T12:05:15.893Z,963.99
2023-03-31T12:06:15.714Z,963.87
2023-03-31T12:07:15.675Z,963.94
2023-03-31T12:08:15.666Z,963.89
2023-03-31T12:09:15.641Z,963.80
2023-03-31T12:10:15.625Z,963.94
2023-03-31T12:11:15.605Z,964.03
2023-03-31T12:12:15.596Z,964.04
2023-03-31T12:13:15.585Z,964.09
2023-03-31T12:14:15.575Z,964.16
2023-03-31T12:15:15.565Z,964.03
2023-03-31T12:16:15.586Z,963.73
2023-03-31T12:17:15.551Z,963.62
2023-03-31T12:18:15.525Z,963.69
2023-03-31T12:19:15.505Z,963.50
2023-03-31T12:20:15.494Z,963.47
2023-03-31T12:21:15.468Z,963.45
2023-03-31T12:22:15.474Z,963.23
2023-03-31T12:23:15.459Z,963.12
2023-03-31T12:24:15.434Z,962.88
2023-03-31T12:25:15.431Z,962.88
2023-03-31T12:26:15.413Z,963.00
2023-03-31T12:27:15.393Z,962.85
2023-03-31T12:28:15.389Z,962.84
2023-03-31T12:29:15.372Z,962.67